sensor_id;sensor_type;location;lat;lon;timestamp;temperature;humidity
53776;DHT22;44276;49.534;6.378;2024-01-27T00:00:01;-2.60;99.90
53776;DHT22;44276;49.534;6.378;2024-01-27T00:02:29;-2.50;99.90
53776;DHT22;44276;49.534;6.378;2024-01-27T00:04:58;-2.60;99.90
53776;DHT22;44276;49.534;6.378;2024-01-27T00:07:26;-2.70;99.90
53776;DHT22;44276;49.534;6.378;2024-01-27T00:09:54;-2.80;99.90
53776;DHT22;44276;49.534;6.378;2024-01-27T00:12:25;-2.80;99.90
53776;DHT22;44276;49.534;6.378;2024-01-27T00:14:55;-2.90;99.90
53776;DHT22;44276;49.534;6.378;2024-01-27T00:17:23;-2.90;99.90
53776;DHT22;44276;49.534;6.378;2024-01-27T00:19:53;-2.90;99.90
53776;DHT22;44276;49.534;6.378;2024-01-27T00:22:21;-2.90;99.90
53776;DHT22;44276;49.534;6.378;2024-01-27T00:24:50;-2.90;99.90
53776;DHT22;44276;49.534;6.378;2024-01-27T00:27:18;-3.00;99.90
53776;DHT22;44276;49.534;6.378;2024-01-27T00:29:46;-2.90;99.90
53776;DHT22;44276;49.534;6.378;2024-01-27T00:32:16;-2.80;99.90
53776;DHT22;44276;49.534;6.378;2024-01-27T00:34:44;-2.80;99.90
53776;DHT22;44276;49.534;6.378;2024-01-27T00:37:12;-2.80;99.90
53776;DHT22;44276;49.534;6.378;2024-01-27T00:39:41;-2.90;99.90
53776;DHT22;44276;49.534;6.378;2024-01-27T00:42:10;-2.90;99.90
53776;DHT22;44276;49.534;6.378;2024-01-27T00:44:38;-3.00;99.90
53776;DHT22;44276;49.534;6.378;2024-01-27T00:47:07;-3.20;99.90
53776;DHT22;44276;49.534;6.378;2024-01-27T00:49:36;-3.40;99.90
53776;DHT22;44276;49.534;6.378;2024-01-27T00:52:05;-3.30;99.90
53776;DHT22;44276;49.534;6.378;2024-01-27T00:54:33;-3.10;99.90
53776;DHT22;44276;49.534;6.378;2024-01-27T00:57:02;-3.00;99.90
53776;DHT22;44276;49.534;6.378;2024-01-27T00:59:31;-3.10;99.90
53776;DHT22;44276;49.534;6.378;2024-01-27T01:01:59;-3.00;99.90
53776;DHT22;44276;49.534;6.378;2024-01-27T01:04:28;-3.00;99.90
53776;DHT22;44276;49.534;6.378;2024-01-27T01:06:58;-3.20;99.90
53776;DHT22;44276;49.534;6.378;2024-01-27T01:09:26;-3.30;99.90
53776;DHT22;44276;49.534;6.378;2024-01-27T01:11:55;-3.50;99.90
53776;DHT22;44276;49.534;6.378;2024-01-27T01:14:23;-3.30;99.90
53776;DHT22;44276;49.534;6.378;2024-01-27T01:16:51;-3.20;99.90
53776;DHT22;44276;49.534;6.378;2024-01-27T01:19:20;-3.20;99.90
53776;DHT22;44276;49.534;6.378;2024-01-27T01:21:48;-3.40;99.90
53776;DHT22;44276;49.534;6.378;2024-01-27T01:24:17;-3.40;99.90
53776;DHT22;44276;49.534;6.378;2024-01-27T01:26:46;-3.30;99.90
53776;DHT22;44276;49.534;6.378;2024-01-27T01:29:14;-3.30;99.90
53776;DHT22;44276;49.534;6.378;2024-01-27T01:31:43;-3.30;99.90
53776;DHT22;44276;49.534;6.378;2024-01-27T01:34:11;-3.30;99.90
53776;DHT22;44276;49.534;6.378;2024-01-27T01:36:39;-3.20;99.90
53776;DHT22;44276;49.534;6.378;2024-01-27T01:39:09;-3.20;99.90
53776;DHT22;44276;49.534;6.378;2024-01-27T01:41:39;-3.30;99.90
53776;DHT22;44276;49.534;6.378;2024-01-27T01:44:07;-3.30;99.90
53776;DHT22;44276;49.534;6.378;2024-01-27T01:46:36;-3.20;99.90
53776;DHT22;44276;49.534;6.378;2024-01-27T01:49:04;-3.20;99.90
53776;DHT22;44276;49.534;6.378;2024-01-27T01:51:33;-3.20;99.90
53776;DHT22;44276;49.534;6.378;2024-01-27T01:54:02;-3.40;99.90
53776;DHT22;44276;49.534;6.378;2024-01-27T01:56:31;-3.40;99.90
53776;DHT22;44276;49.534;6.378;2024-01-27T01:59:01;-3.40;99.90
53776;DHT22;44276;49.534;6.378;2024-01-27T02:01:29;-3.50;99.90
53776;DHT22;44276;49.534;6.378;2024-01-27T02:03:57;-3.50;99.90
53776;DHT22;44276;49.534;6.378;2024-01-27T02:06:26;-3.50;99.90
53776;DHT22;44276;49.534;6.378;2024-01-27T02:08:54;-3.50;99.90
53776;DHT22;44276;49.534;6.378;2024-01-27T02:11:22;-3.50;99.90
53776;DHT22;44276;49.534;6.378;2024-01-27T02:13:50;-3.70;99.90
53776;DHT22;44276;49.534;6.378;2024-01-27T02:16:20;-3.90;99.90
53776;DHT22;44276;49.534;6.378;2024-01-27T02:18:48;-3.80;99.90
53776;DHT22;44276;49.534;6.378;2024-01-27T02:21:17;-3.80;99.90
53776;DHT22;44276;49.534;6.378;2024-01-27T02:23:45;-3.90;99.90
53776;DHT22;44276;49.534;6.378;2024-01-27T02:26:15;-3.90;99.90
53776;DHT22;44276;49.534;6.378;2024-01-27T02:28:43;-3.90;99.90
53776;DHT22;44276;49.534;6.378;2024-01-27T02:31:11;-3.90;99.90
53776;DHT22;44276;49.534;6.378;2024-01-27T02:33:39;-4.00;99.90
53776;DHT22;44276;49.534;6.378;2024-01-27T02:36:08;-4.20;99.90
53776;DHT22;44276;49.534;6.378;2024-01-27T02:38:36;-4.20;99.90
53776;DHT22;44276;49.534;6.378;2024-01-27T02:41:05;-4.20;99.90
53776;DHT22;44276;49.534;6.378;2024-01-27T02:43:34;-4.10;99.90
53776;DHT22;44276;49.534;6.378;2024-01-27T02:46:05;-4.00;99.90
53776;DHT22;44276;49.534;6.378;2024-01-27T02:48:34;-4.10;99.90
53776;DHT22;44276;49.534;6.378;2024-01-27T02:51:03;-4.10;99.90
53776;DHT22;44276;49.534;6.378;2024-01-27T02:53:31;-4.10;99.90
53776;DHT22;44276;49.534;6.378;2024-01-27T02:55:59;-4.00;99.90
53776;DHT22;44276;49.534;6.378;2024-01-27T02:58:28;-4.00;99.90
53776;DHT22;44276;49.534;6.378;2024-01-27T03:00:57;-4.00;99.90
53776;DHT22;44276;49.534;6.378;2024-01-27T03:03:26;-3.90;99.90
53776;DHT22;44276;49.534;6.378;2024-01-27T03:05:56;-3.90;99.90
53776;DHT22;44276;49.534;6.378;2024-01-27T03:08:24;-4.00;99.90
53776;DHT22;44276;49.534;6.378;2024-01-27T03:10:52;-4.10;99.90
53776;DHT22;44276;49.534;6.378;2024-01-27T03:13:20;-4.30;99.90
53776;DHT22;44276;49.534;6.378;2024-01-27T03:15:48;-4.30;99.90
53776;DHT22;44276;49.534;6.378;2024-01-27T03:18:20;-4.40;99.90
53776;DHT22;44276;49.534;6.378;2024-01-27T03:20:48;-4.50;99.90
53776;DHT22;44276;49.534;6.378;2024-01-27T03:23:17;-4.30;99.90
53776;DHT22;44276;49.534;6.378;2024-01-27T03:25:45;-4.30;99.90
53776;DHT22;44276;49.534;6.378;2024-01-27T03:28:14;-4.10;99.90
53776;DHT22;44276;49.534;6.378;2024-01-27T03:30:43;-4.10;99.90
53776;DHT22;44276;49.534;6.378;2024-01-27T03:33:11;-3.90;99.90
53776;DHT22;44276;49.534;6.378;2024-01-27T03:35:41;-3.90;99.90
53776;DHT22;44276;49.534;6.378;2024-01-27T03:38:09;-3.80;99.90
53776;DHT22;44276;49.534;6.378;2024-01-27T03:40:38;-3.90;99.90
53776;DHT22;44276;49.534;6.378;2024-01-27T03:43:06;-3.90;99.90
53776;DHT22;44276;49.534;6.378;2024-01-27T03:45:34;-3.70;99.90
53776;DHT22;44276;49.534;6.378;2024-01-27T03:48:03;-3.70;99.90
53776;DHT22;44276;49.534;6.378;2024-01-27T03:50:32;-3.60;99.90
53776;DHT22;44276;49.534;6.378;2024-01-27T03:53:02;-3.60;99.90
53776;DHT22;44276;49.534;6.378;2024-01-27T03:55:31;-3.60;99.90
53776;DHT22;44276;49.534;6.378;2024-01-27T03:58:01;-3.60;99.90
53776;DHT22;44276;49.534;6.378;2024-01-27T04:00:29;-3.70;99.90
53776;DHT22;44276;49.534;6.378;2024-01-27T04:03:00;-3.80;99.90
53776;DHT22;44276;49.534;6.378;2024-01-27T04:05:30;-3.80;99.90
53776;DHT22;44276;49.534;6.378;2024-01-27T04:07:58;-3.80;99.90
53776;DHT22;44276;49.534;6.378;2024-01-27T04:10:28;-3.70;99.90
53776;DHT22;44276;49.534;6.378;2024-01-27T04:12:56;-3.60;99.90
53776;DHT22;44276;49.534;6.378;2024-01-27T04:15:24;-3.40;99.90
53776;DHT22;44276;49.534;6.378;2024-01-27T04:17:53;-3.30;99.90
53776;DHT22;44276;49.534;6.378;2024-01-27T04:20:22;-3.20;99.90
53776;DHT22;44276;49.534;6.378;2024-01-27T04:22:50;-3.10;99.90
53776;DHT22;44276;49.534;6.378;2024-01-27T04:25:18;-2.90;99.90
53776;DHT22;44276;49.534;6.378;2024-01-27T04:27:48;-2.90;99.90
53776;DHT22;44276;49.534;6.378;2024-01-27T04:30:17;-2.90;99.90
53776;DHT22;44276;49.534;6.378;2024-01-27T04:32:45;-2.80;99.90
53776;DHT22;44276;49.534;6.378;2024-01-27T04:35:15;-2.80;99.90
53776;DHT22;44276;49.534;6.378;2024-01-27T04:37:44;-2.70;99.90
53776;DHT22;44276;49.534;6.378;2024-01-27T04:40:12;-2.70;99.90
53776;DHT22;44276;49.534;6.378;2024-01-27T04:42:40;-2.70;99.90
53776;DHT22;44276;49.534;6.378;2024-01-27T04:45:14;-2.70;99.90
53776;DHT22;44276;49.534;6.378;2024-01-27T04:47:43;-2.70;99.90
53776;DHT22;44276;49.534;6.378;2024-01-27T04:50:11;-2.60;99.90
53776;DHT22;44276;49.534;6.378;2024-01-27T04:52:40;-2.60;99.90
53776;DHT22;44276;49.534;6.378;2024-01-27T04:55:08;-2.60;99.90
53776;DHT22;44276;49.534;6.378;2024-01-27T04:57:36;-2.50;99.90
53776;DHT22;44276;49.534;6.378;2024-01-27T05:00:06;-2.60;99.90
53776;DHT22;44276;49.534;6.378;2024-01-27T05:02:41;-2.60;99.90
53776;DHT22;44276;49.534;6.378;2024-01-27T05:05:10;-2.60;99.90
53776;DHT22;44276;49.534;6.378;2024-01-27T05:07:38;-2.70;99.90
53776;DHT22;44276;49.534;6.378;2024-01-27T05:10:10;-2.70;99.90
53776;DHT22;44276;49.534;6.378;2024-01-27T05:12:39;-2.80;99.90
53776;DHT22;44276;49.534;6.378;2024-01-27T05:15:09;-2.80;99.90
53776;DHT22;44276;49.534;6.378;2024-01-27T05:17:38;-2.80;99.90
53776;DHT22;44276;49.534;6.378;2024-01-27T05:20:09;-2.90;99.90
53776;DHT22;44276;49.534;6.378;2024-01-27T05:22:37;-3.00;99.90
53776;DHT22;44276;49.534;6.378;2024-01-27T05:25:06;-3.10;99.90
53776;DHT22;44276;49.534;6.378;2024-01-27T05:27:37;-3.20;99.90
53776;DHT22;44276;49.534;6.378;2024-01-27T05:30:06;-3.30;99.90
53776;DHT22;44276;49.534;6.378;2024-01-27T05:32:36;-3.30;99.90
53776;DHT22;44276;49.534;6.378;2024-01-27T05:35:05;-3.30;99.90
53776;DHT22;44276;49.534;6.378;2024-01-27T05:37:37;-3.30;99.90
53776;DHT22;44276;49.534;6.378;2024-01-27T05:40:07;-3.30;99.90
53776;DHT22;44276;49.534;6.378;2024-01-27T05:42:37;-3.40;99.90
53776;DHT22;44276;49.534;6.378;2024-01-27T05:45:08;-3.50;99.90
53776;DHT22;44276;49.534;6.378;2024-01-27T05:47:37;-3.50;99.90
53776;DHT22;44276;49.534;6.378;2024-01-27T05:50:08;-3.50;99.90
53776;DHT22;44276;49.534;6.378;2024-01-27T05:52:36;-3.60;99.90
53776;DHT22;44276;49.534;6.378;2024-01-27T05:55:05;-3.50;99.90
53776;DHT22;44276;49.534;6.378;2024-01-27T05:57:35;-3.60;99.90
53776;DHT22;44276;49.534;6.378;2024-01-27T06:00:04;-3.50;99.90
53776;DHT22;44276;49.534;6.378;2024-01-27T06:02:36;-3.50;99.90
53776;DHT22;44276;49.534;6.378;2024-01-27T06:05:05;-3.50;99.90
53776;DHT22;44276;49.534;6.378;2024-01-27T06:07:39;-3.40;99.90
53776;DHT22;44276;49.534;6.378;2024-01-27T06:10:08;-3.40;99.90
53776;DHT22;44276;49.534;6.378;2024-01-27T06:12:38;-3.30;99.90
53776;DHT22;44276;49.534;6.378;2024-01-27T06:15:08;-3.20;99.90
53776;DHT22;44276;49.534;6.378;2024-01-27T06:17:37;-3.20;99.90
53776;DHT22;44276;49.534;6.378;2024-01-27T06:20:07;-3.10;99.90
53776;DHT22;44276;49.534;6.378;2024-01-27T06:22:36;-3.10;99.90
53776;DHT22;44276;49.534;6.378;2024-01-27T06:25:07;-3.10;99.90
53776;DHT22;44276;49.534;6.378;2024-01-27T06:27:37;-3.10;99.90
53776;DHT22;44276;49.534;6.378;2024-01-27T06:30:09;-3.10;99.90
53776;DHT22;44276;49.534;6.378;2024-01-27T06:32:38;-3.10;99.90
53776;DHT22;44276;49.534;6.378;2024-01-27T06:35:07;-3.00;99.90
53776;DHT22;44276;49.534;6.378;2024-01-27T06:37:35;-3.00;99.90
53776;DHT22;44276;49.534;6.378;2024-01-27T06:40:07;-3.00;99.90
53776;DHT22;44276;49.534;6.378;2024-01-27T06:42:36;-3.00;99.90
53776;DHT22;44276;49.534;6.378;2024-01-27T06:45:05;-3.00;99.90
53776;DHT22;44276;49.534;6.378;2024-01-27T06:47:34;-2.90;99.90
53776;DHT22;44276;49.534;6.378;2024-01-27T06:50:04;-2.90;99.90
53776;DHT22;44276;49.534;6.378;2024-01-27T06:52:33;-2.90;99.90
53776;DHT22;44276;49.534;6.378;2024-01-27T06:55:01;-2.90;99.90
53776;DHT22;44276;49.534;6.378;2024-01-27T06:57:31;-2.90;99.90
53776;DHT22;44276;49.534;6.378;2024-01-27T06:59:59;-2.90;99.90
53776;DHT22;44276;49.534;6.378;2024-01-27T07:02:28;-2.90;99.90
53776;DHT22;44276;49.534;6.378;2024-01-27T07:04:56;-2.90;99.90
53776;DHT22;44276;49.534;6.378;2024-01-27T07:07:26;-2.90;99.90
53776;DHT22;44276;49.534;6.378;2024-01-27T07:09:56;-2.90;99.90
53776;DHT22;44276;49.534;6.378;2024-01-27T07:12:25;-2.90;99.90
53776;DHT22;44276;49.534;6.378;2024-01-27T07:14:55;-2.90;99.90
53776;DHT22;44276;49.534;6.378;2024-01-27T07:17:24;-2.90;99.90
53776;DHT22;44276;49.534;6.378;2024-01-27T07:19:52;-3.00;99.90
53776;DHT22;44276;49.534;6.378;2024-01-27T07:22:21;-3.00;99.90
53776;DHT22;44276;49.534;6.378;2024-01-27T07:24:50;-2.90;99.90
53776;DHT22;44276;49.534;6.378;2024-01-27T07:27:19;-2.90;99.90
53776;DHT22;44276;49.534;6.378;2024-01-27T07:29:47;-2.80;99.90
53776;DHT22;44276;49.534;6.378;2024-01-27T07:32:17;-2.70;99.90
53776;DHT22;44276;49.534;6.378;2024-01-27T07:34:45;-2.60;99.90
53776;DHT22;44276;49.534;6.378;2024-01-27T07:37:13;-2.60;99.90
53776;DHT22;44276;49.534;6.378;2024-01-27T07:39:42;-2.50;99.90
53776;DHT22;44276;49.534;6.378;2024-01-27T07:42:10;-2.40;99.90
53776;DHT22;44276;49.534;6.378;2024-01-27T07:44:39;-2.40;99.90
53776;DHT22;44276;49.534;6.378;2024-01-27T07:47:07;-2.40;99.90
53776;DHT22;44276;49.534;6.378;2024-01-27T07:49:37;-2.50;99.90
53776;DHT22;44276;49.534;6.378;2024-01-27T07:52:06;-2.40;99.90
53776;DHT22;44276;49.534;6.378;2024-01-27T07:54:34;-2.40;99.90
53776;DHT22;44276;49.534;6.378;2024-01-27T07:57:06;-2.40;99.90
53776;DHT22;44276;49.534;6.378;2024-01-27T07:59:35;-2.40;99.90
53776;DHT22;44276;49.534;6.378;2024-01-27T08:02:03;-2.40;99.90
53776;DHT22;44276;49.534;6.378;2024-01-27T08:04:32;-2.30;99.90
53776;DHT22;44276;49.534;6.378;2024-01-27T08:07:02;-2.30;99.90
53776;DHT22;44276;49.534;6.378;2024-01-27T08:09:37;-2.30;99.90
53776;DHT22;44276;49.534;6.378;2024-01-27T08:12:06;-2.20;99.90
53776;DHT22;44276;49.534;6.378;2024-01-27T08:14:35;-2.20;99.90
53776;DHT22;44276;49.534;6.378;2024-01-27T08:17:03;-2.10;99.90
53776;DHT22;44276;49.534;6.378;2024-01-27T08:19:32;-1.80;99.90
53776;DHT22;44276;49.534;6.378;2024-01-27T08:22:02;-1.50;99.90
53776;DHT22;44276;49.534;6.378;2024-01-27T08:24:31;-1.40;99.90
53776;DHT22;44276;49.534;6.378;2024-01-27T08:26:59;-1.40;99.90
53776;DHT22;44276;49.534;6.378;2024-01-27T08:29:28;-1.40;99.90
53776;DHT22;44276;49.534;6.378;2024-01-27T08:31:56;-1.30;99.90
53776;DHT22;44276;49.534;6.378;2024-01-27T08:34:25;-1.40;99.90
53776;DHT22;44276;49.534;6.378;2024-01-27T08:36:52;-1.50;99.90
53776;DHT22;44276;49.534;6.378;2024-01-27T08:39:21;-1.60;99.90
53776;DHT22;44276;49.534;6.378;2024-01-27T08:41:50;-1.60;99.90
53776;DHT22;44276;49.534;6.378;2024-01-27T08:44:18;-1.40;99.90
53776;DHT22;44276;49.534;6.378;2024-01-27T08:46:48;-1.10;99.90
53776;DHT22;44276;49.534;6.378;2024-01-27T08:49:18;-0.90;99.90
53776;DHT22;44276;49.534;6.378;2024-01-27T08:51:46;-0.80;99.90
53776;DHT22;44276;49.534;6.378;2024-01-27T08:54:14;-0.80;99.90
53776;DHT22;44276;49.534;6.378;2024-01-27T08:56:44;-0.60;99.90
53776;DHT22;44276;49.534;6.378;2024-01-27T08:59:12;-0.60;99.90
53776;DHT22;44276;49.534;6.378;2024-01-27T09:01:41;-0.70;99.90
53776;DHT22;44276;49.534;6.378;2024-01-27T09:04:09;-0.60;99.90
53776;DHT22;44276;49.534;6.378;2024-01-27T09:06:37;-0.60;99.90
53776;DHT22;44276;49.534;6.378;2024-01-27T09:09:06;-0.60;99.90
53776;DHT22;44276;49.534;6.378;2024-01-27T09:11:34;-0.20;99.90
53776;DHT22;44276;49.534;6.378;2024-01-27T09:14:04;-0.10;99.90
53776;DHT22;44276;49.534;6.378;2024-01-27T09:16:34;0.30;99.90
53776;DHT22;44276;49.534;6.378;2024-01-27T09:19:02;0.50;99.90
53776;DHT22;44276;49.534;6.378;2024-01-27T09:21:31;0.40;99.90
53776;DHT22;44276;49.534;6.378;2024-01-27T09:24:00;0.80;99.90
53776;DHT22;44276;49.534;6.378;2024-01-27T09:26:29;0.90;99.90
53776;DHT22;44276;49.534;6.378;2024-01-27T09:28:58;1.40;99.90
53776;DHT22;44276;49.534;6.378;2024-01-27T09:31:27;1.30;99.90
53776;DHT22;44276;49.534;6.378;2024-01-27T09:33:56;1.70;99.90
53776;DHT22;44276;49.534;6.378;2024-01-27T09:36:25;2.10;99.90
53776;DHT22;44276;49.534;6.378;2024-01-27T09:38:53;2.30;99.90
53776;DHT22;44276;49.534;6.378;2024-01-27T09:41:22;2.30;99.90
53776;DHT22;44276;49.534;6.378;2024-01-27T09:43:51;2.50;99.90
53776;DHT22;44276;49.534;6.378;2024-01-27T09:46:23;2.70;99.90
53776;DHT22;44276;49.534;6.378;2024-01-27T09:48:54;3.00;99.90
53776;DHT22;44276;49.534;6.378;2024-01-27T09:51:22;2.90;99.90
53776;DHT22;44276;49.534;6.378;2024-01-27T09:53:52;2.90;99.90
53776;DHT22;44276;49.534;6.378;2024-01-27T09:56:21;2.90;99.90
53776;DHT22;44276;49.534;6.378;2024-01-27T09:58:50;2.90;99.90
53776;DHT22;44276;49.534;6.378;2024-01-27T10:01:24;3.10;99.90
53776;DHT22;44276;49.534;6.378;2024-01-27T10:03:57;3.40;99.90
53776;DHT22;44276;49.534;6.378;2024-01-27T10:06:26;3.80;99.90
53776;DHT22;44276;49.534;6.378;2024-01-27T10:08:55;4.30;99.90
53776;DHT22;44276;49.534;6.378;2024-01-27T10:11:24;4.60;99.90
53776;DHT22;44276;49.534;6.378;2024-01-27T10:13:55;5.30;99.90
53776;DHT22;44276;49.534;6.378;2024-01-27T10:16:25;6.00;99.90
53776;DHT22;44276;49.534;6.378;2024-01-27T10:19:03;7.10;99.90
53776;DHT22;44276;49.534;6.378;2024-01-27T10:21:31;8.20;99.90
53776;DHT22;44276;49.534;6.378;2024-01-27T10:24:00;8.90;99.90
53776;DHT22;44276;49.534;6.378;2024-01-27T10:26:32;9.50;99.90
53776;DHT22;44276;49.534;6.378;2024-01-27T10:29:02;9.70;99.90
53776;DHT22;44276;49.534;6.378;2024-01-27T10:31:32;9.50;99.90
53776;DHT22;44276;49.534;6.378;2024-01-27T10:34:04;9.70;99.90
53776;DHT22;44276;49.534;6.378;2024-01-27T10:36:39;10.40;99.90
53776;DHT22;44276;49.534;6.378;2024-01-27T10:39:17;11.00;99.90
53776;DHT22;44276;49.534;6.378;2024-01-27T10:41:48;12.20;91.10
53776;DHT22;44276;49.534;6.378;2024-01-27T10:44:18;12.20;66.70
53776;DHT22;44276;49.534;6.378;2024-01-27T10:46:48;12.60;99.90
53776;DHT22;44276;49.534;6.378;2024-01-27T10:49:18;13.30;70.80
53776;DHT22;44276;49.534;6.378;2024-01-27T10:51:53;13.70;62.00
53776;DHT22;44276;49.534;6.378;2024-01-27T10:54:24;13.30;50.80
53776;DHT22;44276;49.534;6.378;2024-01-27T10:56:55;13.30;60.50
53776;DHT22;44276;49.534;6.378;2024-01-27T10:59:27;13.00;54.40
53776;DHT22;44276;49.534;6.378;2024-01-27T11:01:56;12.90;46.60
53776;DHT22;44276;49.534;6.378;2024-01-27T11:04:28;12.70;47.70
53776;DHT22;44276;49.534;6.378;2024-01-27T11:07:00;12.70;44.60
53776;DHT22;44276;49.534;6.378;2024-01-27T11:09:30;12.70;43.10
53776;DHT22;44276;49.534;6.378;2024-01-27T11:12:01;12.50;42.20
53776;DHT22;44276;49.534;6.378;2024-01-27T11:14:30;12.60;44.80
53776;DHT22;44276;49.534;6.378;2024-01-27T11:16:58;13.00;39.00
53776;DHT22;44276;49.534;6.378;2024-01-27T11:19:28;13.00;38.00
53776;DHT22;44276;49.534;6.378;2024-01-27T11:22:00;12.70;38.70
53776;DHT22;44276;49.534;6.378;2024-01-27T11:24:29;12.60;39.20
53776;DHT22;44276;49.534;6.378;2024-01-27T11:27:01;12.20;38.20
53776;DHT22;44276;49.534;6.378;2024-01-27T11:29:31;12.10;40.30
53776;DHT22;44276;49.534;6.378;2024-01-27T11:32:02;12.50;40.00
53776;DHT22;44276;49.534;6.378;2024-01-27T11:34:42;12.90;38.30
53776;DHT22;44276;49.534;6.378;2024-01-27T11:37:13;13.40;35.40
53776;DHT22;44276;49.534;6.378;2024-01-27T11:39:43;13.30;36.80
53776;DHT22;44276;49.534;6.378;2024-01-27T11:42:12;13.60;35.20
53776;DHT22;44276;49.534;6.378;2024-01-27T11:44:42;13.20;35.00
53776;DHT22;44276;49.534;6.378;2024-01-27T11:47:17;13.70;34.80
53776;DHT22;44276;49.534;6.378;2024-01-27T11:49:52;13.70;32.70
53776;DHT22;44276;49.534;6.378;2024-01-27T11:52:24;13.60;33.00
53776;DHT22;44276;49.534;6.378;2024-01-27T11:54:56;13.80;32.80
53776;DHT22;44276;49.534;6.378;2024-01-27T11:57:25;13.80;32.90
53776;DHT22;44276;49.534;6.378;2024-01-27T11:59:55;13.50;31.00
53776;DHT22;44276;49.534;6.378;2024-01-27T12:02:25;13.30;32.20
53776;DHT22;44276;49.534;6.378;2024-01-27T12:04:55;13.20;33.00
53776;DHT22;44276;49.534;6.378;2024-01-27T12:07:24;12.70;33.30
53776;DHT22;44276;49.534;6.378;2024-01-27T12:09:54;12.10;35.30
53776;DHT22;44276;49.534;6.378;2024-01-27T12:12:22;12.00;37.20
53776;DHT22;44276;49.534;6.378;2024-01-27T12:14:51;11.80;37.00
53776;DHT22;44276;49.534;6.378;2024-01-27T12:17:20;11.60;37.30
53776;DHT22;44276;49.534;6.378;2024-01-27T12:19:52;10.90;38.30
53776;DHT22;44276;49.534;6.378;2024-01-27T12:22:24;10.70;41.60
53776;DHT22;44276;49.534;6.378;2024-01-27T12:24:53;10.70;42.50
53776;DHT22;44276;49.534;6.378;2024-01-27T12:27:22;10.40;43.70
53776;DHT22;44276;49.534;6.378;2024-01-27T12:29:51;10.00;46.60
53776;DHT22;44276;49.534;6.378;2024-01-27T12:32:19;9.60;49.60
53776;DHT22;44276;49.534;6.378;2024-01-27T12:34:48;9.60;51.50
53776;DHT22;44276;49.534;6.378;2024-01-27T12:37:17;9.40;51.70
53776;DHT22;44276;49.534;6.378;2024-01-27T12:39:47;9.40;55.10
53776;DHT22;44276;49.534;6.378;2024-01-27T12:42:17;9.50;56.40
53776;DHT22;44276;49.534;6.378;2024-01-27T12:44:46;9.50;56.00
53776;DHT22;44276;49.534;6.378;2024-01-27T12:47:13;9.60;55.70
53776;DHT22;44276;49.534;6.378;2024-01-27T12:49:41;9.50;55.30
53776;DHT22;44276;49.534;6.378;2024-01-27T12:52:10;9.70;57.30
53776;DHT22;44276;49.534;6.378;2024-01-27T12:54:39;9.40;56.10
53776;DHT22;44276;49.534;6.378;2024-01-27T12:57:09;9.10;57.50
53776;DHT22;44276;49.534;6.378;2024-01-27T12:59:37;8.80;59.30
53776;DHT22;44276;49.534;6.378;2024-01-27T13:02:06;8.60;62.90
53776;DHT22;44276;49.534;6.378;2024-01-27T13:04:34;8.60;64.90
53776;DHT22;44276;49.534;6.378;2024-01-27T13:07:05;8.40;69.80
53776;DHT22;44276;49.534;6.378;2024-01-27T13:09:33;8.60;64.80
53776;DHT22;44276;49.534;6.378;2024-01-27T13:12:03;8.70;62.70
53776;DHT22;44276;49.534;6.378;2024-01-27T13:14:33;9.00;63.50
53776;DHT22;44276;49.534;6.378;2024-01-27T13:17:01;9.30;60.40
53776;DHT22;44276;49.534;6.378;2024-01-27T13:19:29;9.70;57.90
53776;DHT22;44276;49.534;6.378;2024-01-27T13:21:58;9.90;53.40
53776;DHT22;44276;49.534;6.378;2024-01-27T13:24:28;10.10;52.60
53776;DHT22;44276;49.534;6.378;2024-01-27T13:26:56;10.30;49.70
53776;DHT22;44276;49.534;6.378;2024-01-27T13:29:25;10.30;48.60
53776;DHT22;44276;49.534;6.378;2024-01-27T13:31:55;10.30;48.20
53776;DHT22;44276;49.534;6.378;2024-01-27T13:34:25;10.30;47.50
53776;DHT22;44276;49.534;6.378;2024-01-27T13:36:54;10.30;47.60
53776;DHT22;44276;49.534;6.378;2024-01-27T13:39:23;10.40;46.40
53776;DHT22;44276;49.534;6.378;2024-01-27T13:41:51;10.20;45.30
53776;DHT22;44276;49.534;6.378;2024-01-27T13:44:19;10.20;46.80
53776;DHT22;44276;49.534;6.378;2024-01-27T13:46:47;10.10;46.20
53776;DHT22;44276;49.534;6.378;2024-01-27T13:49:17;10.00;47.00
53776;DHT22;44276;49.534;6.378;2024-01-27T13:51:47;10.00;49.10
53776;DHT22;44276;49.534;6.378;2024-01-27T13:54:15;10.20;47.10
53776;DHT22;44276;49.534;6.378;2024-01-27T13:56:43;10.20;45.50
53776;DHT22;44276;49.534;6.378;2024-01-27T13:59:12;10.20;45.10
53776;DHT22;44276;49.534;6.378;2024-01-27T14:01:40;10.20;44.40
53776;DHT22;44276;49.534;6.378;2024-01-27T14:04:08;10.30;44.40
53776;DHT22;44276;49.534;6.378;2024-01-27T14:06:38;10.30;44.80
53776;DHT22;44276;49.534;6.378;2024-01-27T14:09:07;10.30;43.80
53776;DHT22;44276;49.534;6.378;2024-01-27T14:11:36;10.30;43.80
53776;DHT22;44276;49.534;6.378;2024-01-27T14:14:04;10.60;43.10
53776;DHT22;44276;49.534;6.378;2024-01-27T14:16:33;10.60;43.30
53776;DHT22;44276;49.534;6.378;2024-01-27T14:19:01;10.40;44.10
53776;DHT22;44276;49.534;6.378;2024-01-27T14:21:29;10.30;43.30
53776;DHT22;44276;49.534;6.378;2024-01-27T14:23:59;10.10;44.00
53776;DHT22;44276;49.534;6.378;2024-01-27T14:26:32;10.10;44.00
53776;DHT22;44276;49.534;6.378;2024-01-27T14:29:00;10.20;43.50
53776;DHT22;44276;49.534;6.378;2024-01-27T14:31:28;10.20;43.60
53776;DHT22;44276;49.534;6.378;2024-01-27T14:33:57;10.10;42.70
53776;DHT22;44276;49.534;6.378;2024-01-27T14:36:25;10.00;44.00
53776;DHT22;44276;49.534;6.378;2024-01-27T14:38:54;10.00;44.90
53776;DHT22;44276;49.534;6.378;2024-01-27T14:41:24;10.00;44.90
53776;DHT22;44276;49.534;6.378;2024-01-27T14:43:52;9.90;46.80
53776;DHT22;44276;49.534;6.378;2024-01-27T14:46:22;9.90;47.80
53776;DHT22;44276;49.534;6.378;2024-01-27T14:48:50;10.00;47.80
53776;DHT22;44276;49.534;6.378;2024-01-27T14:51:20;10.00;47.70
53776;DHT22;44276;49.534;6.378;2024-01-27T14:53:49;9.90;49.60
53776;DHT22;44276;49.534;6.378;2024-01-27T14:56:17;9.90;48.90
53776;DHT22;44276;49.534;6.378;2024-01-27T14:58:47;9.90;48.80
53776;DHT22;44276;49.534;6.378;2024-01-27T15:01:18;9.80;49.10
53776;DHT22;44276;49.534;6.378;2024-01-27T15:03:46;9.80;50.20
53776;DHT22;44276;49.534;6.378;2024-01-27T15:06:14;9.80;50.70
53776;DHT22;44276;49.534;6.378;2024-01-27T15:08:43;9.70;51.10
53776;DHT22;44276;49.534;6.378;2024-01-27T15:11:12;9.50;51.80
53776;DHT22;44276;49.534;6.378;2024-01-27T15:13:40;9.30;52.50
53776;DHT22;44276;49.534;6.378;2024-01-27T15:16:10;9.10;54.90
53776;DHT22;44276;49.534;6.378;2024-01-27T15:18:38;9.10;55.60
53776;DHT22;44276;49.534;6.378;2024-01-27T15:21:11;8.90;56.40
53776;DHT22;44276;49.534;6.378;2024-01-27T15:23:39;8.70;59.90
53776;DHT22;44276;49.534;6.378;2024-01-27T15:26:08;8.70;61.60
53776;DHT22;44276;49.534;6.378;2024-01-27T15:28:38;8.70;62.40
53776;DHT22;44276;49.534;6.378;2024-01-27T15:31:06;8.60;63.30
53776;DHT22;44276;49.534;6.378;2024-01-27T15:33:36;8.40;64.70
53776;DHT22;44276;49.534;6.378;2024-01-27T15:36:05;8.20;67.90
53776;DHT22;44276;49.534;6.378;2024-01-27T15:38:35;7.90;72.50
53776;DHT22;44276;49.534;6.378;2024-01-27T15:41:04;7.70;76.30
53776;DHT22;44276;49.534;6.378;2024-01-27T15:43:34;7.50;81.00
53776;DHT22;44276;49.534;6.378;2024-01-27T15:46:02;7.20;88.20